Time;durP1;ratioP1;P1;durP2;ratioP2;P2;SDS_P1;SDS_P2;PMS_P1;PMS_P2;Temp;Humidity;BMP_temperature;BMP_pressure;BME280_temperature;BME280_humidity;BME280_pressure;Samples;Min_cycle;Max_cycle;Signal;HPM_P1;HPM_P2
2023/05/10 00:01:54;;;;;;;51.80;23.92;;;;;;;;;;5030252;28;20448;-66
2023/05/10 00:04:19;;;;;;;53.80;24.33;;;;;;;;;;5029858;28;20051;-67
2023/05/10 00:06:44;;;;;;;61.63;24.25;;;;;;;;;;5029550;28;20528;-66
2023/05/10 00:09:10;;;;;;;50.10;23.33;;;;;;;;;;5027510;28;20481;-66
2023/05/10 00:11:35;;;;;;;50.38;24.13;;;;;;;;;;5024738;28;20175;-66
2023/05/10 00:14:02;;;;;;;53.78;24.17;;;;;;;;;;5023607;28;20045;-66
2023/05/10 00:16:27;;;;;;;51.42;24.83;;;;;;;;;;5023769;28;20043;-66
2023/05/10 00:18:52;;;;;;;53.03;24.25;;;;;;;;;;5022556;28;20091;-66
2023/05/10 00:21:18;;;;;;;54.20;25.17;;;;;;;;;;5028512;28;20052;-66
2023/05/10 00:23:43;;;;;;;52.17;24.92;;;;;;;;;;5034090;28;20029;-66
2023/05/10 00:26:08;;;;;;;51.30;24.73;;;;;;;;;;5028902;28;20026;-66
2023/05/10 00:28:33;;;;;;;58.40;25.95;;;;;;;;;;5029708;28;20025;-66
2023/05/10 00:30:59;;;;;;;55.97;25.52;;;;;;;;;;5026152;28;20436;-66
2023/05/10 00:33:24;;;;;;;57.22;25.13;;;;;;;;;;5028931;28;20461;-65
2023/05/10 00:35:50;;;;;;;57.78;25.10;;;;;;;;;;5028917;28;20462;-66
2023/05/10 00:38:15;;;;;;;58.05;25.58;;;;;;;;;;5030135;28;20560;-66
2023/05/10 00:40:40;;;;;;;55.13;26.02;;;;;;;;;;5022913;28;20056;-66
2023/05/10 00:43:06;;;;;;;51.63;24.83;;;;;;;;;;5026505;28;20017;-66
2023/05/10 00:45:32;;;;;;;56.33;24.83;;;;;;;;;;5030478;28;20032;-66
2023/05/10 00:47:59;;;;;;;56.75;24.55;;;;;;;;;;5029049;28;20082;-66
2023/05/10 00:50:25;;;;;;;55.17;24.60;;;;;;;;;;5016801;28;20057;-66
2023/05/10 00:52:51;;;;;;;53.20;24.15;;;;;;;;;;5021246;28;20022;-66
2023/05/10 00:55:17;;;;;;;58.55;25.15;;;;;;;;;;5022296;28;20160;-66
2023/05/10 00:57:43;;;;;;;61.70;26.05;;;;;;;;;;5016134;28;20455;-66
2023/05/10 01:03:11;;;;;;;68.28;26.17;;;;;;;;;;5052981;22;20053;-70
2023/05/10 01:05:36;;;;;;;53.42;24.30;;;;;;;;;;5045844;28;20040;-71
2023/05/10 01:08:02;;;;;;;52.65;24.50;;;;;;;;;;5050253;28;20029;-71
2023/05/10 01:10:27;;;;;;;56.78;24.35;;;;;;;;;;5052472;28;20017;-70
2023/05/10 01:12:53;;;;;;;48.40;22.80;;;;;;;;;;5049801;28;20036;-70
2023/05/10 01:15:20;;;;;;;60.97;25.83;;;;;;;;;;5052580;28;20191;-71
2023/05/10 01:17:46;;;;;;;105.40;28.77;;;;;;;;;;5052304;28;20021;-71
2023/05/10 01:20:12;;;;;;;94.00;29.58;;;;;;;;;;5054825;28;20032;-71
2023/05/10 01:23:06;;;;;;;93.68;28.42;;;;;;;;;;5038168;28;20461;-70
2023/05/10 01:25:41;;;;;;;68.95;26.15;;;;;;;;;;4973983;28;20403;-70
2023/05/10 01:28:16;;;;;;;91.65;29.42;;;;;;;;;;5052502;28;20387;-71
2023/05/10 01:31:07;;;;;;;88.05;29.35;;;;;;;;;;5052409;28;20546;-70
2023/05/10 01:33:39;;;;;;;109.68;29.40;;;;;;;;;;4958055;28;20047;-71
2023/05/10 01:36:25;;;;;;;110.45;29.85;;;;;;;;;;4953318;28;20031;-70
2023/05/10 01:39:20;;;;;;;89.07;28.83;;;;;;;;;;4955268;28;20031;-70
2023/05/10 01:41:54;;;;;;;79.35;28.50;;;;;;;;;;4916725;28;20028;-70
2023/05/10 01:44:46;;;;;;;72.00;26.88;;;;;;;;;;4971000;28;20141;-69
2023/05/10 01:47:13;;;;;;;72.10;26.90;;;;;;;;;;4967448;28;20498;-70
2023/05/10 01:49:46;;;;;;;70.25;26.20;;;;;;;;;;4971206;28;20018;-70
2023/05/10 01:52:12;;;;;;;69.43;27.30;;;;;;;;;;4971125;28;20037;-70
2023/05/10 01:54:41;;;;;;;70.20;27.25;;;;;;;;;;4970883;28;20027;-70
2023/05/10 01:57:08;;;;;;;76.15;27.08;;;;;;;;;;4970654;28;20072;-69
2023/05/10 01:59:40;;;;;;;68.07;26.10;;;;;;;;;;4959760;28;20501;-70
2023/05/10 02:02:06;;;;;;;84.63;28.02;;;;;;;;;;4954982;28;20558;-69
2023/05/10 02:04:35;;;;;;;74.45;27.40;;;;;;;;;;4972228;28;20050;-70
2023/05/10 02:07:00;;;;;;;67.38;27.13;;;;;;;;;;4972108;28;20027;-71
2023/05/10 02:09:27;;;;;;;70.90;26.48;;;;;;;;;;4979484;28;20438;-70
2023/05/10 02:11:53;;;;;;;74.90;27.70;;;;;;;;;;5033028;28;20040;-70
2023/05/10 02:14:19;;;;;;;74.05;27.65;;;;;;;;;;5031800;28;20493;-70
2023/05/10 02:16:46;;;;;;;70.43;26.90;;;;;;;;;;5033008;28;20022;-70
2023/05/10 02:19:12;;;;;;;71.20;26.95;;;;;;;;;;5032645;28;20109;-70
2023/05/10 02:21:37;;;;;;;71.97;27.83;;;;;;;;;;5050058;28;20074;-71
2023/05/10 02:24:04;;;;;;;76.80;27.05;;;;;;;;;;5049872;28;20025;-70
2023/05/10 02:26:30;;;;;;;79.95;26.98;;;;;;;;;;5045910;28;20013;-70
2023/05/10 02:28:56;;;;;;;74.15;27.80;;;;;;;;;;5032906;28;20045;-70
2023/05/10 02:31:22;;;;;;;83.20;28.38;;;;;;;;;;5031907;28;20017;-69
2023/05/10 02:33:48;;;;;;;84.97;29.98;;;;;;;;;;5032738;28;20025;-69
2023/05/10 02:36:13;;;;;;;69.78;27.67;;;;;;;;;;5032485;28;20029;-69
2023/05/10 02:38:38;;;;;;;75.20;28.88;;;;;;;;;;5032509;28;20036;-70
2023/05/10 02:41:05;;;;;;;73.43;27.55;;;;;;;;;;5031639;28;20105;-70
2023/05/10 02:43:31;;;;;;;79.65;28.70;;;;;;;;;;5032689;28;20060;-71
2023/05/10 02:45:56;;;;;;;72.55;28.33;;;;;;;;;;5032419;28;20047;-71
2023/05/10 02:48:22;;;;;;;74.95;28.48;;;;;;;;;;5032163;28;20108;-68
2023/05/10 02:50:51;;;;;;;76.28;28.92;;;;;;;;;;5032908;28;20039;-67
2023/05/10 02:53:20;;;;;;;67.35;27.40;;;;;;;;;;5032650;28;20064;-66
2023/05/10 02:55:49;;;;;;;73.78;27.70;;;;;;;;;;5032549;28;20017;-67
2023/05/10 02:58:14;;;;;;;74.78;27.98;;;;;;;;;;5032662;28;20041;-66
2023/05/10 03:00:39;;;;;;;79.07;28.77;;;;;;;;;;5032526;28;20098;-66
2023/05/10 03:03:05;;;;;;;90.53;29.45;;;;;;;;;;5031896;28;20049;-66
2023/05/10 03:05:30;;;;;;;81.38;28.02;;;;;;;;;;5031173;28;20039;-66
2023/05/10 03:07:55;;;;;;;74.53;27.45;;;;;;;;;;5032252;28;20021;-65
2023/05/10 03:10:26;;;;;;;74.80;27.98;;;;;;;;;;5030901;28;20021;-66
2023/05/10 03:13:24;;;;;;;80.65;28.40;;;;;;;;;;5028810;28;20385;-66
2023/05/10 03:16:10;;;;;;;123.38;30.85;;;;;;;;;;5001029;28;20479;-66
2023/05/10 03:18:43;;;;;;;26.83;11.20;;;;;;;;;;5031584;28;20049;-66
2023/05/10 03:21:12;;;;;;;31.95;12.85;;;;;;;;;;5032060;28;20021;-66
2023/05/10 03:23:45;;;;;;;23.10;10.20;;;;;;;;;;5038996;28;20072;-67
2023/05/10 03:26:17;;;;;;;18.23;7.40;;;;;;;;;;5036216;28;20108;-67
2023/05/10 03:28:42;;;;;;;19.75;8.10;;;;;;;;;;5036191;28;20028;-66
2023/05/10 03:31:08;;;;;;;20.20;6.15;;;;;;;;;;5035813;28;20377;-67
2023/05/10 03:33:33;;;;;;;15.65;5.97;;;;;;;;;;5035725;28;20067;-66
2023/05/10 03:35:58;;;;;;;14.55;5.57;;;;;;;;;;5036107;28;20017;-66
2023/05/10 03:38:24;;;;;;;12.10;5.30;;;;;;;;;;5047331;28;20515;-67
2023/05/10 03:40:49;;;;;;;14.03;5.10;;;;;;;;;;5038395;28;20021;-66
2023/05/10 03:43:15;;;;;;;18.30;6.10;;;;;;;;;;5054343;28;20029;-66
2023/05/10 03:45:40;;;;;;;13.82;5.40;;;;;;;;;;5054474;28;20017;-67
2023/05/10 03:48:05;;;;;;;14.20;5.95;;;;;;;;;;5054161;28;20100;-67
2023/05/10 03:50:31;;;;;;;21.42;6.82;;;;;;;;;;5054346;28;20028;-66
2023/05/10 03:52:57;;;;;;;20.85;6.95;;;;;;;;;;5053935;28;20017;-66
2023/05/10 03:55:22;;;;;;;18.88;7.80;;;;;;;;;;5054196;28;20017;-66
2023/05/10 03:57:49;;;;;;;17.55;6.97;;;;;;;;;;5038915;28;20354;-67
2023/05/10 04:00:15;;;;;;;18.38;7.65;;;;;;;;;;5034141;28;20531;-66
2023/05/10 04:02:40;;;;;;;18.63;7.72;;;;;;;;;;5036019;28;20025;-67
2023/05/10 04:05:06;;;;;;;22.05;7.75;;;;;;;;;;5040702;28;20404;-67
2023/05/10 04:07:31;;;;;;;20.73;8.50;;;;;;;;;;5035465;28;20047;-67
2023/05/10 04:09:57;;;;;;;21.02;8.95;;;;;;;;;;5035023;28;20010;-66
2023/05/10 04:12:22;;;;;;;23.63;9.33;;;;;;;;;;5033029;28;20013;-67
2023/05/10 04:14:47;;;;;;;25.80;10.60;;;;;;;;;;5034428;28;20093;-67
2023/05/10 04:17:12;;;;;;;21.77;9.07;;;;;;;;;;5035291;28;20052;-68
2023/05/10 04:19:38;;;;;;;25.63;9.80;;;;;;;;;;5034885;28;20025;-67
2023/05/10 04:22:03;;;;;;;19.20;9.20;;;;;;;;;;5034969;28;20014;-66
2023/05/10 04:24:29;;;;;;;20.80;9.85;;;;;;;;;;5034651;28;20026;-67
2023/05/10 04:26:54;;;;;;;23.80;9.93;;;;;;;;;;5034644;28;20136;-67
2023/05/10 04:29:20;;;;;;;22.63;10.43;;;;;;;;;;5033263;28;20020;-66
2023/05/10 04:31:45;;;;;;;21.95;9.15;;;;;;;;;;5030808;28;20028;-71
2023/05/10 04:34:10;;;;;;;29.10;10.95;;;;;;;;;;5028460;28;20017;-70
2023/05/10 04:36:36;;;;;;;23.20;10.48;;;;;;;;;;5028437;28;20124;-70
2023/05/10 04:39:02;;;;;;;21.83;9.50;;;;;;;;;;5032384;28;20027;-70
2023/05/10 04:41:28;;;;;;;23.20;9.67;;;;;;;;;;5030849;28;20029;-70
2023/05/10 04:43:53;;;;;;;20.23;8.73;;;;;;;;;;5037035;28;20044;-71
2023/05/10 04:46:19;;;;;;;21.10;9.40;;;;;;;;;;5033143;28;20100;-71
2023/05/10 04:48:44;;;;;;;23.97;9.30;;;;;;;;;;5034744;28;20434;-70
2023/05/10 04:51:09;;;;;;;24.33;10.33;;;;;;;;;;5041298;28;20384;-71
2023/05/10 04:53:35;;;;;;;24.93;9.77;;;;;;;;;;5041965;28;20718;-69
2023/05/10 04:56:00;;;;;;;28.90;10.57;;;;;;;;;;5030551;28;20022;-71
2023/05/10 04:58:25;;;;;;;24.00;9.07;;;;;;;;;;5036205;28;20087;-70
2023/05/10 05:00:51;;;;;;;26.17;10.10;;;;;;;;;;5031475;28;20025;-70
2023/05/10 05:03:16;;;;;;;32.83;11.37;;;;;;;;;;5029556;28;20033;-71
2023/05/10 05:05:41;;;;;;;36.23;11.73;;;;;;;;;;5031951;28;20477;-70
2023/05/10 05:08:07;;;;;;;36.80;11.70;;;;;;;;;;5042694;28;20028;-70
2023/05/10 05:10:32;;;;;;;30.77;11.37;;;;;;;;;;5031801;28;20029;-71
2023/05/10 05:12:57;;;;;;;33.90;11.33;;;;;;;;;;5031664;28;20047;-70
2023/05/10 05:15:23;;;;;;;31.83;11.47;;;;;;;;;;5038808;28;20100;-67
2023/05/10 05:17:48;;;;;;;32.77;11.27;;;;;;;;;;5035760;28;20112;-68
2023/05/10 05:20:14;;;;;;;31.40;11.30;;;;;;;;;;5032249;28;20029;-68
2023/05/10 05:22:39;;;;;;;30.57;10.77;;;;;;;;;;5032417;28;20100;-68
2023/05/10 05:25:05;;;;;;;38.40;13.80;;;;;;;;;;5033386;28;20021;-66
2023/05/10 05:27:31;;;;;;;27.40;11.30;;;;;;;;;;5033076;28;20374;-66
2023/05/10 05:29:56;;;;;;;33.33;11.77;;;;;;;;;;5030621;28;20021;-66
2023/05/10 05:32:22;;;;;;;30.27;11.50;;;;;;;;;;5030545;28;20013;-66
2023/05/10 05:34:47;;;;;;;31.03;11.27;;;;;;;;;;5040120;28;20480;-68
2023/05/10 05:37:16;;;;;;;33.17;12.00;;;;;;;;;;5034646;28;20017;-67
2023/05/10 05:39:42;;;;;;;33.93;11.60;;;;;;;;;;5029697;28;20044;-66
2023/05/10 05:42:07;;;;;;;29.70;10.80;;;;;;;;;;5033472;28;20022;-66
2023/05/10 05:44:33;;;;;;;32.40;11.50;;;;;;;;;;5033352;28;20116;-66
2023/05/10 05:46:58;;;;;;;40.53;13.27;;;;;;;;;;5031257;28;20021;-66
2023/05/10 05:49:23;;;;;;;35.60;12.93;;;;;;;;;;5031834;28;20469;-66
2023/05/10 05:51:50;;;;;;;40.40;13.30;;;;;;;;;;5033249;28;20072;-67
2023/05/10 05:54:15;;;;;;;37.60;12.83;;;;;;;;;;5032281;28;20405;-67
2023/05/10 05:56:40;;;;;;;37.30;13.07;;;;;;;;;;5027343;28;20096;-67
2023/05/10 05:59:06;;;;;;;32.60;12.88;;;;;;;;;;5038299;28;20078;-67
2023/05/10 06:01:31;;;;;;;28.33;11.53;;;;;;;;;;5032084;28;20017;-67
2023/05/10 06:03:56;;;;;;;30.50;12.52;;;;;;;;;;5029079;28;20521;-67
2023/05/10 06:06:22;;;;;;;29.27;12.02;;;;;;;;;;5030422;28;20926;-67
2023/05/10 06:08:47;;;;;;;34.90;13.30;;;;;;;;;;5031730;28;20021;-67
2023/05/10 06:11:12;;;;;;;28.25;10.82;;;;;;;;;;5028851;28;20017;-67
2023/05/10 06:13:37;;;;;;;22.53;10.33;;;;;;;;;;5032137;28;20052;-67
2023/05/10 06:16:03;;;;;;;27.70;10.90;;;;;;;;;;5029238;28;20029;-67
2023/05/10 06:18:28;;;;;;;26.27;11.27;;;;;;;;;;5030838;28;20076;-67
2023/05/10 06:20:53;;;;;;;24.20;10.43;;;;;;;;;;5038847;28;20021;-68
2023/05/10 06:23:19;;;;;;;26.67;10.93;;;;;;;;;;5051356;28;20428;-68
2023/05/10 06:25:44;;;;;;;30.17;11.97;;;;;;;;;;5032517;28;20034;-67
2023/05/10 06:28:09;;;;;;;22.20;10.10;;;;;;;;;;5032479;28;20021;-68
2023/05/10 06:30:35;;;;;;;27.27;11.00;;;;;;;;;;5034245;28;20484;-67
2023/05/10 06:33:01;;;;;;;23.80;10.23;;;;;;;;;;5032467;28;20024;-67
2023/05/10 06:35:26;;;;;;;21.03;10.37;;;;;;;;;;5031406;28;20026;-67
2023/05/10 06:37:51;;;;;;;24.47;11.20;;;;;;;;;;5032439;28;20195;-68
2023/05/10 06:40:17;;;;;;;25.87;11.30;;;;;;;;;;5029697;28;20021;-67
2023/05/10 06:42:42;;;;;;;21.60;10.10;;;;;;;;;;5032379;28;20377;-67
2023/05/10 06:45:08;;;;;;;22.50;10.25;;;;;;;;;;5030442;28;20040;-67
2023/05/10 06:47:34;;;;;;;16.47;8.53;;;;;;;;;;5030523;28;20013;-68
2023/05/10 06:49:59;;;;;;;23.13;11.03;;;;;;;;;;5032990;28;20037;-67
2023/05/10 06:52:24;;;;;;;22.83;10.07;;;;;;;;;;5032508;28;20097;-67
2023/05/10 06:54:50;;;;;;;20.92;10.52;;;;;;;;;;5029579;28;20022;-67
2023/05/10 06:57:15;;;;;;;19.02;10.68;;;;;;;;;;5033296;28;20025;-67
2023/05/10 06:59:41;;;;;;;16.90;9.18;;;;;;;;;;5035247;28;20097;-67
2023/05/10 07:02:06;;;;;;;19.50;9.87;;;;;;;;;;5034456;28;20025;-67
2023/05/10 07:04:31;;;;;;;17.52;9.15;;;;;;;;;;5034899;28;20497;-67
2023/05/10 07:06:57;;;;;;;17.90;9.82;;;;;;;;;;5036206;28;20461;-67
2023/05/10 07:09:24;;;;;;;15.35;9.02;;;;;;;;;;5035337;28;20021;-67
2023/05/10 07:11:49;;;;;;;16.13;9.45;;;;;;;;;;5044219;28;20013;-67
2023/05/10 07:14:14;;;;;;;14.60;8.32;;;;;;;;;;5035331;28;20063;-67
2023/05/10 07:16:40;;;;;;;15.45;8.68;;;;;;;;;;5036461;28;20025;-67
2023/05/10 07:19:05;;;;;;;13.20;7.72;;;;;;;;;;5034067;28;20478;-67
2023/05/10 07:21:31;;;;;;;13.65;8.00;;;;;;;;;;5032220;28;20045;-67
2023/05/10 07:23:56;;;;;;;15.05;8.30;;;;;;;;;;5030781;28;20029;-68
2023/05/10 07:26:21;;;;;;;15.00;9.25;;;;;;;;;;5035290;28;20528;-67
2023/05/10 07:28:47;;;;;;;14.77;8.63;;;;;;;;;;5035716;28;20024;-67
2023/05/10 07:31:12;;;;;;;19.67;9.88;;;;;;;;;;5034758;28;20021;-67
2023/05/10 07:33:38;;;;;;;20.15;10.20;;;;;;;;;;5034039;28;20033;-67
2023/05/10 07:36:03;;;;;;;21.27;11.00;;;;;;;;;;5035472;28;20025;-67
2023/05/10 07:38:28;;;;;;;21.00;11.40;;;;;;;;;;5035141;28;20496;-67
2023/05/10 07:40:54;;;;;;;17.77;9.90;;;;;;;;;;5034567;28;20045;-67
2023/05/10 07:43:19;;;;;;;18.30;9.30;;;;;;;;;;5035837;28;20033;-67
2023/05/10 07:45:44;;;;;;;21.98;11.80;;;;;;;;;;5034515;28;20025;-67
2023/05/10 07:48:10;;;;;;;19.63;10.45;;;;;;;;;;5046261;28;20032;-67
2023/05/10 07:50:35;;;;;;;17.58;10.30;;;;;;;;;;5035755;28;20030;-67
2023/05/10 07:53:00;;;;;;;21.88;9.95;;;;;;;;;;5036822;28;20029;-67
2023/05/10 07:55:26;;;;;;;17.17;9.50;;;;;;;;;;5034461;28;20093;-66
2023/05/10 07:57:51;;;;;;;19.25;11.52;;;;;;;;;;5029985;28;20032;-67
2023/05/10 08:00:17;;;;;;;15.48;9.55;;;;;;;;;;5031349;28;20036;-67
2023/05/10 08:02:42;;;;;;;17.50;9.52;;;;;;;;;;5037643;28;20108;-67
2023/05/10 08:05:08;;;;;;;18.92;9.85;;;;;;;;;;5028752;28;20149;-66
2023/05/10 08:07:33;;;;;;;17.13;10.52;;;;;;;;;;5038706;28;20358;-67
2023/05/10 08:09:58;;;;;;;17.45;10.32;;;;;;;;;;5035403;28;20017;-67
2023/05/10 08:12:24;;;;;;;16.83;9.05;;;;;;;;;;5037073;28;20052;-66
2023/05/10 08:14:49;;;;;;;16.65;9.40;;;;;;;;;;5045800;28;20076;-67
2023/05/10 08:17:14;;;;;;;17.77;9.18;;;;;;;;;;5032535;28;20021;-67
2023/05/10 08:19:40;;;;;;;15.75;9.80;;;;;;;;;;5033517;28;20094;-67
2023/05/10 08:22:05;;;;;;;16.50;8.93;;;;;;;;;;5034850;28;20017;-66
2023/05/10 08:24:30;;;;;;;15.13;9.10;;;;;;;;;;5033053;28;20044;-66
2023/05/10 08:26:55;;;;;;;16.02;9.93;;;;;;;;;;5041302;28;20025;-67
2023/05/10 08:29:21;;;;;;;16.08;8.57;;;;;;;;;;5033912;28;20030;-67
2023/05/10 08:31:46;;;;;;;15.02;8.88;;;;;;;;;;5033033;28;20015;-66
2023/05/10 08:34:11;;;;;;;14.18;7.95;;;;;;;;;;5033607;28;20025;-67
2023/05/10 08:36:37;;;;;;;11.25;6.40;;;;;;;;;;5035554;28;20025;-67
2023/05/10 08:39:02;;;;;;;11.75;6.30;;;;;;;;;;5037844;28;20032;-67
2023/05/10 08:41:28;;;;;;;9.43;5.40;;;;;;;;;;5033045;28;20104;-67
2023/05/10 08:43:53;;;;;;;8.43;4.85;;;;;;;;;;5032991;28;20021;-67
2023/05/10 08:46:19;;;;;;;10.20;5.40;;;;;;;;;;5031422;28;20026;-66
2023/05/10 08:48:45;;;;;;;9.48;5.45;;;;;;;;;;5033997;28;20041;-67
2023/05/10 08:51:14;;;;;;;10.82;5.68;;;;;;;;;;5033540;28;20029;-67
2023/05/10 08:53:40;;;;;;;11.85;5.60;;;;;;;;;;5032359;28;20025;-67
2023/05/10 08:56:05;;;;;;;10.68;6.07;;;;;;;;;;5041555;28;20034;-67
2023/05/10 08:58:31;;;;;;;11.98;6.53;;;;;;;;;;5034468;28;20096;-67
2023/05/10 09:00:56;;;;;;;10.57;6.32;;;;;;;;;;5030341;28;20481;-67
2023/05/10 09:03:22;;;;;;;10.65;6.40;;;;;;;;;;5030620;28;21357;-67
2023/05/10 09:05:50;;;;;;;11.90;7.20;;;;;;;;;;5029774;28;20056;-65
2023/05/10 09:08:16;;;;;;;12.15;6.85;;;;;;;;;;5046602;28;20045;-65
2023/05/10 09:10:43;;;;;;;11.70;6.93;;;;;;;;;;5039057;28;20044;-64
2023/05/10 09:13:09;;;;;;;14.48;7.90;;;;;;;;;;5028896;28;20079;-64
2023/05/10 09:15:35;;;;;;;12.68;6.80;;;;;;;;;;5030468;28;20025;-65
2023/05/10 09:18:02;;;;;;;13.68;7.70;;;;;;;;;;5034815;28;20382;-64
2023/05/10 09:20:27;;;;;;;16.13;8.80;;;;;;;;;;5033539;28;20089;-65
2023/05/10 09:22:53;;;;;;;15.27;8.60;;;;;;;;;;5044556;28;20594;-65
2023/05/10 09:25:18;;;;;;;14.27;8.52;;;;;;;;;;5031828;28;20063;-65
2023/05/10 09:27:45;;;;;;;14.57;9.05;;;;;;;;;;5035566;28;20183;-66
2023/05/10 09:30:11;;;;;;;15.20;8.80;;;;;;;;;;5046512;28;20033;-66
2023/05/10 09:32:44;;;;;;;16.02;9.02;;;;;;;;;;5033453;28;20025;-66
2023/05/10 09:35:19;;;;;;;14.57;9.75;;;;;;;;;;5038880;28;20017;-66
2023/05/10 09:37:46;;;;;;;16.20;10.48;;;;;;;;;;5029509;28;20426;-65
2023/05/10 09:40:15;;;;;;;22.48;10.40;;;;;;;;;;5030634;28;20051;-66
2023/05/10 09:42:41;;;;;;;14.60;9.52;;;;;;;;;;5025660;28;20017;-66
2023/05/10 09:45:07;;;;;;;14.65;9.43;;;;;;;;;;5031536;28;20033;-67
2023/05/10 09:47:33;;;;;;;14.88;8.90;;;;;;;;;;5012796;28;20029;-67
2023/05/10 09:50:03;;;;;;;10.40;5.60;;;;;;;;;;5023404;28;20156;-67
2023/05/10 09:52:28;;;;;;;11.43;6.55;;;;;;;;;;5039150;28;20021;-66
2023/05/10 09:54:54;;;;;;;13.18;7.82;;;;;;;;;;5034869;28;20359;-64
2023/05/10 09:57:24;;;;;;;15.88;8.82;;;;;;;;;;5028230;28;20035;-65
2023/05/10 09:59:50;;;;;;;15.68;7.93;;;;;;;;;;5029779;28;20044;-65
2023/05/10 10:02:16;;;;;;;16.52;9.80;;;;;;;;;;5029367;28;20579;-65
2023/05/10 10:04:41;;;;;;;15.55;9.05;;;;;;;;;;4999176;28;1168808;-67
2023/05/10 10:07:06;;;;;;;17.33;9.80;;;;;;;;;;5032327;28;20041;-67
2023/05/10 10:09:32;;;;;;;15.13;8.43;;;;;;;;;;5032879;28;20128;-67
2023/05/10 10:11:59;;;;;;;13.52;7.38;;;;;;;;;;5032622;28;20021;-67
2023/05/10 10:14:25;;;;;;;11.00;6.57;;;;;;;;;;5030687;28;20052;-67
2023/05/10 10:16:53;;;;;;;11.10;6.82;;;;;;;;;;5029073;28;20469;-67
2023/05/10 10:19:20;;;;;;;11.88;7.63;;;;;;;;;;5034568;28;20034;-67
2023/05/10 10:21:45;;;;;;;10.13;6.47;;;;;;;;;;5030656;28;20174;-68
2023/05/10 10:24:10;;;;;;;11.88;7.50;;;;;;;;;;5031451;28;20108;-68
2023/05/10 10:26:38;;;;;;;10.55;6.97;;;;;;;;;;5029845;28;20243;-66
2023/05/10 10:29:15;;;;;;;12.00;6.63;;;;;;;;;;5030133;28;20440;-67
2023/05/10 10:31:55;;;;;;;11.90;6.72;;;;;;;;;;5030208;28;20457;-67
2023/05/10 10:34:28;;;;;;;9.43;5.77;;;;;;;;;;5030055;28;20033;-67
2023/05/10 10:36:54;;;;;;;13.00;7.82;;;;;;;;;;5032726;28;20489;-67
2023/05/10 10:39:20;;;;;;;9.00;4.80;;;;;;;;;;5031697;28;20057;-67
2023/05/10 10:41:52;;;;;;;8.05;4.70;;;;;;;;;;5046065;28;20435;-67
2023/05/10 10:44:24;;;;;;;8.60;4.25;;;;;;;;;;5046517;28;20022;-67
2023/05/10 10:47:23;;;;;;;8.32;4.35;;;;;;;;;;5031523;28;20096;-67
2023/05/10 10:49:51;;;;;;;7.78;3.75;;;;;;;;;;5022267;28;20041;-67
2023/05/10 10:52:28;;;;;;;9.07;3.80;;;;;;;;;;5029319;28;20095;-67
2023/05/10 10:55:05;;;;;;;8.45;4.10;;;;;;;;;;5028733;28;20037;-67
2023/05/10 10:57:42;;;;;;;9.48;5.15;;;;;;;;;;5031301;28;20033;-67
2023/05/10 11:00:30;;;;;;;7.65;4.40;;;;;;;;;;5030248;28;20393;-68
2023/05/10 11:02:56;;;;;;;9.15;5.00;;;;;;;;;;5028561;28;20025;-68
2023/05/10 11:05:41;;;;;;;7.40;4.60;;;;;;;;;;5029191;28;20042;-68
2023/05/10 11:08:10;;;;;;;7.00;4.50;;;;;;;;;;5030275;28;20427;-68
2023/05/10 11:10:36;;;;;;;6.93;3.80;;;;;;;;;;5027879;28;20025;-68
2023/05/10 11:13:08;;;;;;;6.18;3.33;;;;;;;;;;5030769;28;20017;-67
2023/05/10 11:15:34;;;;;;;5.97;2.90;;;;;;;;;;5019090;28;20532;-67
2023/05/10 11:17:59;;;;;;;4.28;2.83;;;;;;;;;;5031051;28;20523;-68
2023/05/10 11:20:32;;;;;;;5.35;3.15;;;;;;;;;;5030379;28;20029;-67
2023/05/10 11:22:58;;;;;;;6.53;3.58;;;;;;;;;;5031349;28;20485;-68
2023/05/10 11:25:26;;;;;;;5.28;2.95;;;;;;;;;;5032551;28;20013;-67
2023/05/10 11:27:51;;;;;;;4.55;2.70;;;;;;;;;;5030575;28;20028;-68
2023/05/10 11:30:17;;;;;;;6.72;3.35;;;;;;;;;;5028672;28;20025;-67
2023/05/10 11:32:42;;;;;;;5.53;2.60;;;;;;;;;;5028787;28;20493;-67
2023/05/10 11:35:08;;;;;;;5.78;2.85;;;;;;;;;;5026923;28;20481;-67
2023/05/10 11:37:34;;;;;;;5.03;3.17;;;;;;;;;;5027822;28;20017;-67
2023/05/10 11:39:59;;;;;;;5.65;3.20;;;;;;;;;;5030537;28;20445;-67
2023/05/10 11:42:24;;;;;;;6.05;3.40;;;;;;;;;;5031993;28;20104;-66
2023/05/10 11:44:50;;;;;;;5.65;2.80;;;;;;;;;;5031774;28;20025;-65
2023/05/10 11:47:15;;;;;;;4.90;3.30;;;;;;;;;;5035072;28;20228;-68
2023/05/10 11:49:43;;;;;;;6.22;3.80;;;;;;;;;;5034476;28;20021;-67
2023/05/10 11:52:10;;;;;;;7.10;4.00;;;;;;;;;;5036109;28;20461;-67
2023/05/10 11:54:36;;;;;;;8.00;4.40;;;;;;;;;;5035911;28;20022;-67
2023/05/10 11:57:01;;;;;;;9.43;5.30;;;;;;;;;;5035677;28;20124;-66
2023/05/10 11:59:26;;;;;;;7.57;4.47;;;;;;;;;;5034540;28;20080;-66
2023/05/10 12:01:52;;;;;;;8.05;5.18;;;;;;;;;;5036154;28;20371;-67
2023/05/10 12:04:17;;;;;;;7.60;4.20;;;;;;;;;;5034292;28;20131;-66
2023/05/10 12:06:43;;;;;;;5.88;3.50;;;;;;;;;;5035393;28;20029;-67
2023/05/10 12:09:08;;;;;;;7.78;3.42;;;;;;;;;;5034794;28;20036;-66
2023/05/10 12:11:37;;;;;;;5.85;2.90;;;;;;;;;;5032812;28;20486;-65
2023/05/10 12:14:04;;;;;;;8.90;3.25;;;;;;;;;;5035201;28;20021;-67
2023/05/10 12:16:29;;;;;;;4.88;3.40;;;;;;;;;;5036027;28;20477;-67
2023/05/10 12:18:58;;;;;;;8.90;3.13;;;;;;;;;;5035145;28;20079;-67
2023/05/10 12:21:25;;;;;;;4.35;2.88;;;;;;;;;;5034432;28;20036;-66
2023/05/10 12:23:51;;;;;;;4.00;2.53;;;;;;;;;;5034552;28;20029;-67
2023/05/10 12:26:16;;;;;;;4.65;2.58;;;;;;;;;;5035746;28;20468;-67
2023/05/10 12:28:42;;;;;;;6.38;2.90;;;;;;;;;;5035463;28;20041;-66
2023/05/10 12:31:07;;;;;;;3.67;2.50;;;;;;;;;;5035399;28;20010;-67
2023/05/10 12:33:41;;;;;;;5.13;2.80;;;;;;;;;;5034270;28;20021;-63
2023/05/10 12:36:06;;;;;;;4.40;2.70;;;;;;;;;;5035200;28;20036;-64
2023/05/10 12:38:33;;;;;;;4.88;2.80;;;;;;;;;;5035295;28;20021;-63
2023/05/10 12:40:59;;;;;;;6.60;2.80;;;;;;;;;;5035259;28;20017;-64
2023/05/10 12:43:25;;;;;;;4.90;2.90;;;;;;;;;;5032812;28;20373;-63
2023/05/10 12:45:50;;;;;;;5.13;3.13;;;;;;;;;;5035407;28;20028;-63
2023/05/10 12:48:15;;;;;;;6.00;3.00;;;;;;;;;;5034253;28;20076;-63
2023/05/10 12:50:40;;;;;;;5.30;3.20;;;;;;;;;;5035056;28;20018;-63
2023/05/10 12:53:06;;;;;;;6.55;3.50;;;;;;;;;;5033876;28;20397;-63
2023/05/10 12:55:31;;;;;;;6.88;3.63;;;;;;;;;;5033102;28;20478;-63
2023/05/10 12:57:56;;;;;;;7.18;3.35;;;;;;;;;;5032862;28;20021;-63
2023/05/10 13:00:22;;;;;;;4.82;3.15;;;;;;;;;;5033944;28;20066;-63
2023/05/10 13:02:47;;;;;;;5.88;3.40;;;;;;;;;;5034436;28;20021;-63
2023/05/10 13:05:13;;;;;;;7.72;3.45;;;;;;;;;;5033073;28;20414;-63
2023/05/10 13:07:38;;;;;;;5.95;3.17;;;;;;;;;;5034888;28;20020;-63
2023/05/10 13:10:04;;;;;;;4.95;2.75;;;;;;;;;;5034632;28;20020;-62
2023/05/10 13:12:29;;;;;;;5.18;2.80;;;;;;;;;;5033430;28;20014;-64
2023/05/10 13:14:54;;;;;;;5.22;3.28;;;;;;;;;;5034919;28;20032;-63
2023/05/10 13:17:20;;;;;;;4.90;2.47;;;;;;;;;;5033597;28;20029;-63
2023/05/10 13:19:45;;;;;;;4.18;2.45;;;;;;;;;;5033507;28;20025;-63
2023/05/10 13:22:11;;;;;;;6.05;3.15;;;;;;;;;;5034059;28;20075;-64
2023/05/10 13:24:36;;;;;;;5.00;2.50;;;;;;;;;;5034272;28;20385;-63
2023/05/10 13:27:01;;;;;;;3.70;2.30;;;;;;;;;;5033249;28;20018;-64
2023/05/10 13:29:27;;;;;;;4.30;2.55;;;;;;;;;;5034478;28;20014;-64
2023/05/10 13:31:52;;;;;;;4.88;2.95;;;;;;;;;;5033550;28;20164;-64
2023/05/10 13:34:20;;;;;;;4.13;2.78;;;;;;;;;;5032641;28;20082;-66
2023/05/10 13:36:45;;;;;;;5.57;3.10;;;;;;;;;;5032766;28;20091;-65
2023/05/10 13:39:10;;;;;;;4.75;3.15;;;;;;;;;;5033272;28;20029;-63
2023/05/10 13:41:36;;;;;;;5.07;3.20;;;;;;;;;;5033226;28;20079;-66
2023/05/10 13:44:01;;;;;;;4.47;2.72;;;;;;;;;;5034208;28;20063;-65
2023/05/10 13:46:29;;;;;;;4.65;2.70;;;;;;;;;;5034170;28;20470;-65
2023/05/10 13:48:54;;;;;;;4.25;2.80;;;;;;;;;;5032953;28;20044;-65
2023/05/10 13:51:19;;;;;;;6.35;2.42;;;;;;;;;;5033753;28;20614;-65
2023/05/10 13:53:46;;;;;;;4.68;2.60;;;;;;;;;;5034097;28;20496;-68
2023/05/10 13:56:12;;;;;;;5.53;2.40;;;;;;;;;;5032709;28;20024;-68
2023/05/10 13:58:37;;;;;;;4.43;1.98;;;;;;;;;;5033059;28;20014;-66
2023/05/10 14:01:02;;;;;;;3.03;1.75;;;;;;;;;;5032350;28;20013;-67
2023/05/10 14:03:28;;;;;;;3.05;1.60;;;;;;;;;;5032062;28;20359;-65
2023/05/10 14:05:53;;;;;;;5.28;2.13;;;;;;;;;;5033240;28;20034;-64
2023/05/10 14:08:18;;;;;;;4.20;2.45;;;;;;;;;;5033892;28;20025;-65
2023/05/10 14:10:43;;;;;;;4.40;2.47;;;;;;;;;;5033689;28;20079;-64
2023/05/10 14:13:09;;;;;;;4.35;3.05;;;;;;;;;;5032641;28;20075;-64
2023/05/10 14:15:34;;;;;;;4.88;3.03;;;;;;;;;;5033461;28;20048;-64
2023/05/10 14:18:00;;;;;;;7.15;3.75;;;;;;;;;;5032354;28;20457;-64
2023/05/10 14:20:25;;;;;;;5.15;3.60;;;;;;;;;;5033386;28;20025;-64
2023/05/10 14:22:50;;;;;;;7.80;4.00;;;;;;;;;;5032364;28;20044;-65
2023/05/10 14:25:16;;;;;;;7.07;4.30;;;;;;;;;;5032521;28;20033;-65
2023/05/10 14:27:41;;;;;;;8.40;3.80;;;;;;;;;;5033242;28;20029;-65
2023/05/10 14:30:07;;;;;;;6.53;3.45;;;;;;;;;;5033498;28;20382;-66